Philadelphia, Pennsylvania
Current Conditions -  °F | °C
As of 5:54 PM on Thursday 18 Dec 2014 (Local Time) from KPHL Reporting Station
Broken Clouds Broken Clouds  
Wind Chill: -1°   Ceiling: 22000
Heat Index:   Visibility: 10mi
Dew Point: -5°   Wind: 12mph
Humidity: 55%   Direction: 280°W
Pressure: 30.05"   Gusts: NA
Location:  39.95°N, 75.16°W
Report Text: KPHL 182254Z 28010KT 10SM SCT040 BKN220 03/M05 A3005 RMK AO2 SLP174 T00331050
Loading
Personal Weather Stations






























Interactive Weather Map New forecast layout! Learn more

10-Day Weather Forecast

Advertisements
Track Severe Weather on mobile